createdAt,value
2019-03-16T00:03:11.346Z,89.11
2019-03-16T00:05:39.818Z,89.67
2019-03-16T00:08:07.717Z,89.93
2019-03-16T00:10:36.036Z,89.84
2019-03-16T00:13:23.708Z,90.21
2019-03-16T00:15:52.231Z,90.39
2019-03-16T00:18:32.659Z,90.62
2019-03-16T00:21:01.441Z,90.45
2019-03-16T00:23:29.446Z,90.50
2019-03-16T00:25:57.745Z,91.08
2019-03-16T00:28:26.011Z,90.88
2019-03-16T00:30:54.276Z,90.83
2019-03-16T00:33:22.996Z,90.67
2019-03-16T00:36:10.700Z,91.19
2019-03-16T00:38:58.421Z,91.35
2019-03-16T00:41:26.706Z,91.62
2019-03-16T00:43:55.307Z,91.41
2019-03-16T00:49:23.449Z,91.66
2019-03-16T00:51:52.104Z,91.32
2019-03-16T00:54:20.375Z,91.69
2019-03-16T00:56:48.978Z,91.02
2019-03-16T00:59:17.194Z,91.42
2019-03-16T01:01:45.091Z,91.14
2019-03-16T01:04:32.013Z,91.20
2019-03-16T01:07:00.031Z,91.16
2019-03-16T01:09:59.630Z,90.86
2019-03-16T01:12:28.360Z,91.10
2019-03-16T01:14:55.951Z,91.29
2019-03-16T01:17:24.490Z,90.78
2019-03-16T01:22:54.228Z,90.56
2019-03-16T01:28:25.062Z,89.90
2019-03-16T01:31:12.733Z,89.66
2019-03-16T01:33:40.881Z,89.84
2019-03-16T01:36:09.098Z,90.41
2019-03-16T01:39:17.758Z,90.63
2019-03-16T01:44:26.710Z,89.70
2019-03-16T01:49:56.256Z,89.16
2019-03-16T01:52:24.153Z,88.74
2019-03-16T01:54:52.492Z,89.34
2019-03-16T01:57:21.202Z,88.74
2019-03-16T01:59:49.757Z,88.88
2019-03-16T02:02:17.649Z,89.04
2019-03-16T02:04:46.536Z,89.26
2019-03-16T02:13:17.693Z,88.44
2019-03-16T02:15:46.322Z,88.20
2019-03-16T02:18:14.804Z,88.21
2019-03-16T02:20:43.383Z,87.82
2019-03-16T02:23:11.740Z,88.34
2019-03-16T02:25:39.622Z,87.92
2019-03-16T02:28:07.452Z,88.16
2019-03-16T02:30:36.087Z,88.47
2019-03-16T02:33:12.773Z,88.03
2019-03-16T02:35:40.752Z,88.24
2019-03-16T02:38:09.162Z,87.93
2019-03-16T02:40:37.414Z,87.83
2019-03-16T02:46:07.331Z,87.19
2019-03-16T02:48:35.614Z,87.70
2019-03-16T02:51:04.131Z,87.65
2019-03-16T02:53:32.429Z,87.94
2019-03-16T02:56:01.061Z,87.94
2019-03-16T02:58:29.752Z,87.51
2019-03-16T03:00:58.072Z,87.17
2019-03-16T03:03:29.842Z,87.56
2019-03-16T03:05:56.859Z,87.31
2019-03-16T03:08:25.436Z,87.48
2019-03-16T03:10:53.825Z,87.42
2019-03-16T03:13:22.104Z,86.92
2019-03-16T03:15:52.586Z,86.54
2019-03-16T03:18:20.839Z,86.19
2019-03-16T03:20:49.112Z,85.67
2019-03-16T03:23:17.318Z,86.14
2019-03-16T03:25:46.075Z,86.21
2019-03-16T03:28:14.464Z,86.25
2019-03-16T03:30:43.211Z,85.70
2019-03-16T03:33:11.219Z,85.57
2019-03-16T03:35:39.612Z,85.40
2019-03-16T03:38:07.479Z,85.05
2019-03-16T03:40:35.009Z,84.98
2019-03-16T03:43:03.374Z,84.73
2019-03-16T03:45:32.022Z,84.47
2019-03-16T03:48:00.315Z,84.74
2019-03-16T03:50:28.922Z,85.17
2019-03-16T03:52:56.432Z,84.75
2019-03-16T03:55:24.631Z,84.81
2019-03-16T03:57:52.952Z,84.98
2019-03-16T04:00:21.200Z,84.89
2019-03-16T04:02:49.088Z,84.92
2019-03-16T04:05:18.408Z,84.64
2019-03-16T04:07:47.107Z,84.57
2019-03-16T04:10:15.354Z,84.69
2019-03-16T04:12:44.078Z,84.48
2019-03-16T04:18:35.061Z,84.43
2019-03-16T04:21:15.481Z,84.00
2019-03-16T04:23:43.756Z,83.62
2019-03-16T04:26:11.574Z,84.20
2019-03-16T04:28:40.203Z,84.43
2019-03-16T04:31:08.650Z,84.33
2019-03-16T04:33:36.936Z,84.37
2019-03-16T04:36:05.641Z,83.33
2019-03-16T04:38:33.996Z,83.49
2019-03-16T04:41:02.593Z,83.23
2019-03-16T04:43:30.537Z,83.66
2019-03-16T04:45:59.259Z,83.57
2019-03-16T04:48:27.784Z,83.66
2019-03-16T04:50:56.118Z,83.41
2019-03-16T04:53:24.711Z,83.65
2019-03-16T04:55:53.546Z,83.66
2019-03-16T04:58:21.481Z,83.93
2019-03-16T05:00:49.982Z,83.81
2019-03-16T05:03:18.634Z,84.08
2019-03-16T05:05:46.967Z,83.75
2019-03-16T05:08:15.631Z,83.59
2019-03-16T05:11:02.863Z,83.43
2019-03-16T05:14:01.877Z,83.84
2019-03-16T05:16:30.208Z,83.87
2019-03-16T05:18:58.763Z,83.53
2019-03-16T05:21:27.123Z,83.62
2019-03-16T05:23:55.360Z,83.16
2019-03-16T05:26:23.835Z,83.15
2019-03-16T05:28:52.026Z,83.50
2019-03-16T05:31:19.918Z,83.37
2019-03-16T05:33:48.230Z,83.40
2019-03-16T05:36:16.231Z,83.72
2019-03-16T05:39:24.904Z,83.66
2019-03-16T05:44:53.869Z,83.84
2019-03-16T05:50:23.403Z,83.75
2019-03-16T05:56:00.989Z,83.64
2019-03-16T06:01:57.517Z,83.00
2019-03-16T06:07:34.777Z,82.43
2019-03-16T06:10:03.268Z,82.40
2019-03-16T06:12:31.581Z,82.72
2019-03-16T06:14:59.464Z,82.59
2019-03-16T06:17:27.983Z,82.82
2019-03-16T06:19:56.222Z,82.51
2019-03-16T06:22:24.923Z,82.04
2019-03-16T06:24:55.142Z,82.13
2019-03-16T06:27:23.415Z,82.13
2019-03-16T06:29:51.601Z,81.74
2019-03-16T06:38:22.662Z,82.04
2019-03-16T06:40:51.312Z,81.68
2019-03-16T06:49:21.074Z,81.82
2019-03-16T06:51:49.781Z,81.28
2019-03-16T06:54:17.988Z,81.21
2019-03-16T06:56:46.222Z,81.12
2019-03-16T06:59:14.991Z,80.63
2019-03-16T07:01:43.601Z,80.93
2019-03-16T07:04:12.011Z,80.91
2019-03-16T07:06:40.476Z,80.47
2019-03-16T07:09:09.094Z,80.75
2019-03-16T07:11:38.187Z,80.81
2019-03-16T07:14:06.451Z,80.55
2019-03-16T07:16:34.983Z,79.59
2019-03-16T07:19:02.976Z,80.06
2019-03-16T07:21:31.311Z,80.08
2019-03-16T07:24:00.144Z,80.42
2019-03-16T07:27:08.503Z,80.91
2019-03-16T07:29:56.122Z,80.79
2019-03-16T07:32:24.831Z,80.79
2019-03-16T07:34:53.102Z,80.51
2019-03-16T07:37:21.631Z,80.50
2019-03-16T07:39:50.586Z,80.76
2019-03-16T07:42:59.165Z,79.81
2019-03-16T07:45:27.986Z,80.46
2019-03-16T07:47:56.421Z,80.91
2019-03-16T07:50:24.848Z,81.16
2019-03-16T07:52:53.222Z,80.99
2019-03-16T07:55:21.507Z,80.62
2019-03-16T07:57:50.109Z,80.74
2019-03-16T08:00:18.673Z,80.63
2019-03-16T08:02:47.370Z,80.35
2019-03-16T08:05:19.099Z,80.57
2019-03-16T08:07:52.521Z,80.42
2019-03-16T08:10:40.172Z,81.01
2019-03-16T08:13:08.427Z,81.20
2019-03-16T08:15:36.333Z,80.91
2019-03-16T08:18:07.703Z,81.14
2019-03-16T08:20:35.434Z,81.30
2019-03-16T08:23:03.026Z,80.97
2019-03-16T08:25:31.171Z,81.39
2019-03-16T08:27:59.480Z,81.58
2019-03-16T08:30:27.587Z,82.57
2019-03-16T08:32:56.160Z,83.64
2019-03-16T08:35:24.943Z,84.25
2019-03-16T08:37:53.281Z,84.38
2019-03-16T08:40:21.579Z,85.00
2019-03-16T08:42:51.443Z,85.70
2019-03-16T08:45:26.213Z,86.59
2019-03-16T08:47:54.666Z,86.67
2019-03-16T08:50:23.418Z,86.56
2019-03-16T08:52:53.671Z,87.25
2019-03-16T08:58:46.994Z,87.81
2019-03-16T09:01:55.194Z,87.96
2019-03-16T09:04:54.493Z,88.03
2019-03-16T09:07:34.457Z,87.93
2019-03-16T09:10:33.622Z,87.38
2019-03-16T09:13:13.774Z,86.07
2019-03-16T09:15:42.568Z,85.28
2019-03-16T09:18:50.873Z,84.08
2019-03-16T09:24:39.118Z,81.83
2019-03-16T09:27:07.013Z,83.04
2019-03-16T09:29:35.622Z,81.73
2019-03-16T09:32:04.174Z,81.41
2019-03-16T09:40:54.476Z,80.21
2019-03-16T09:43:22.719Z,79.53
2019-03-16T09:45:51.406Z,78.40
2019-03-16T09:49:00.047Z,76.87
2019-03-16T09:54:30.630Z,75.16
2019-03-16T10:03:03.295Z,67.64
2019-03-16T10:05:31.611Z,67.41
2019-03-16T10:11:09.343Z,70.02
2019-03-16T10:13:37.317Z,67.59
2019-03-16T10:16:05.501Z,68.54
2019-03-16T10:19:14.101Z,67.09
2019-03-16T10:21:43.014Z,69.04
2019-03-16T10:24:11.797Z,67.51
2019-03-16T10:26:40.258Z,66.78
2019-03-16T10:29:09.340Z,67.83
2019-03-16T10:31:38.003Z,67.76
2019-03-16T10:34:05.550Z,69.12
2019-03-16T10:39:54.804Z,68.10
2019-03-16T10:42:44.050Z,68.00
2019-03-16T10:45:12.334Z,67.40
2019-03-16T10:47:40.663Z,66.34
2019-03-16T10:56:33.587Z,65.89
2019-03-16T10:59:01.861Z,64.53
2019-03-16T11:01:30.440Z,65.11
2019-03-16T11:07:40.992Z,65.96
2019-03-16T11:10:21.281Z,65.59
2019-03-16T11:12:49.886Z,65.63
2019-03-16T11:15:29.650Z,65.62
2019-03-16T11:17:57.966Z,64.91
2019-03-16T11:21:06.576Z,63.91
2019-03-16T11:23:34.863Z,63.71
2019-03-16T11:26:02.929Z,61.85
2019-03-16T11:28:49.834Z,60.76
2019-03-16T11:31:18.179Z,59.42
2019-03-16T11:33:48.398Z,58.54
2019-03-16T11:36:23.822Z,57.07
2019-03-16T11:38:52.072Z,57.52
2019-03-16T11:41:20.572Z,59.06
2019-03-16T11:43:49.150Z,59.47
2019-03-16T11:46:17.434Z,59.91
2019-03-16T11:48:45.709Z,59.72
2019-03-16T11:51:14.273Z,56.58
2019-03-16T11:53:42.491Z,56.26
2019-03-16T11:56:17.876Z,55.06
2019-03-16T11:58:48.263Z,54.28
2019-03-16T12:01:35.584Z,54.55
2019-03-16T12:04:03.439Z,55.50
2019-03-16T12:06:32.047Z,55.52
2019-03-16T12:09:00.539Z,55.68
2019-03-16T12:11:28.912Z,54.36
2019-03-16T12:13:57.595Z,52.89
2019-03-16T12:16:26.287Z,52.53
2019-03-16T12:18:54.808Z,52.64
2019-03-16T12:21:23.079Z,50.20
2019-03-16T12:23:51.043Z,50.71
2019-03-16T12:26:20.314Z,49.86
2019-03-16T12:28:59.308Z,50.95
2019-03-16T12:31:27.544Z,49.34
2019-03-16T12:33:56.565Z,52.46
2019-03-16T12:36:24.523Z,49.51
2019-03-16T12:38:53.549Z,49.45
2019-03-16T12:41:22.219Z,49.30
2019-03-16T12:43:51.129Z,47.88
2019-03-16T12:46:19.587Z,48.06
2019-03-16T12:48:47.793Z,46.32
2019-03-16T12:51:16.479Z,46.67
2019-03-16T12:53:44.339Z,46.33
2019-03-16T12:56:12.621Z,48.00
2019-03-16T12:58:40.962Z,47.27
2019-03-16T13:01:12.473Z,44.60
2019-03-16T13:03:46.266Z,43.60
2019-03-16T13:06:14.924Z,44.30
2019-03-16T13:08:43.659Z,43.56
2019-03-16T13:11:11.643Z,44.20
2019-03-16T13:13:39.914Z,43.88
2019-03-16T13:16:08.405Z,42.54
2019-03-16T13:18:36.978Z,40.80
2019-03-16T13:21:05.266Z,38.30
2019-03-16T13:23:33.943Z,39.56
2019-03-16T13:26:01.944Z,41.85
2019-03-16T13:28:29.802Z,43.09
2019-03-16T13:30:58.095Z,43.41
2019-03-16T13:33:26.966Z,42.07
2019-03-16T13:35:54.549Z,43.28
2019-03-16T13:38:23.195Z,42.83
2019-03-16T13:40:51.611Z,43.54
2019-03-16T13:43:19.640Z,42.04
2019-03-16T13:45:48.310Z,39.94
2019-03-16T13:48:16.658Z,40.23
2019-03-16T13:50:45.260Z,39.50
2019-03-16T13:53:13.879Z,42.95
2019-03-16T13:55:42.158Z,39.57
2019-03-16T13:58:10.999Z,38.65
2019-03-16T14:00:38.903Z,36.52
2019-03-16T14:03:15.161Z,36.63
2019-03-16T14:05:43.033Z,35.39
2019-03-16T14:08:11.247Z,32.91
2019-03-16T14:10:40.308Z,33.41
2019-03-16T14:13:27.253Z,35.02
2019-03-16T14:15:56.009Z,34.76
2019-03-16T14:18:23.939Z,35.84
2019-03-16T14:24:02.328Z,33.30
2019-03-16T14:26:30.924Z,31.68
2019-03-16T14:28:59.201Z,32.12
2019-03-16T14:31:27.549Z,30.63
2019-03-16T14:33:55.557Z,28.80
2019-03-16T14:36:24.239Z,30.20
2019-03-16T14:38:52.944Z,28.66
2019-03-16T14:41:21.411Z,27.65
2019-03-16T14:43:57.878Z,29.95
2019-03-16T14:46:26.674Z,30.52
2019-03-16T14:48:55.280Z,31.58
2019-03-16T14:51:24.818Z,33.38
2019-03-16T14:53:59.947Z,30.63
2019-03-16T14:56:40.557Z,31.43
2019-03-16T14:59:08.852Z,33.26
2019-03-16T15:01:36.741Z,32.43
2019-03-16T15:04:04.772Z,31.41
2019-03-16T15:06:33.484Z,29.29
2019-03-16T15:09:01.702Z,28.97
2019-03-16T15:11:29.673Z,31.61
2019-03-16T15:14:20.967Z,36.96
2019-03-16T15:16:39.740Z,36.96
2019-03-16T15:19:07.804Z,38.90
2019-03-16T15:21:35.769Z,39.69
2019-03-16T15:24:04.065Z,39.57
2019-03-16T15:26:32.446Z,39.15
2019-03-16T15:29:01.024Z,39.61
2019-03-16T15:31:29.301Z,40.52
2019-03-16T15:33:57.178Z,40.21
2019-03-16T15:36:25.581Z,39.02
2019-03-16T15:38:53.419Z,36.04
2019-03-16T15:41:21.715Z,35.06
2019-03-16T15:43:50.034Z,36.32
2019-03-16T15:46:18.650Z,36.94
2019-03-16T15:48:46.970Z,38.20
2019-03-16T15:51:34.306Z,30.95
2019-03-16T15:54:02.769Z,30.95
2019-03-16T15:56:30.654Z,29.95
2019-03-16T15:58:59.447Z,30.45
2019-03-16T16:01:46.369Z,33.90
2019-03-16T16:04:15.113Z,33.90
2019-03-16T16:06:43.528Z,34.21
2019-03-16T16:09:12.150Z,37.84
2019-03-16T16:11:40.308Z,37.30
2019-03-16T16:14:08.570Z,37.42
2019-03-16T16:16:37.275Z,38.74
2019-03-16T16:19:05.800Z,40.75
2019-03-16T16:21:34.270Z,41.97
2019-03-16T16:24:02.411Z,40.79
2019-03-16T16:26:30.730Z,41.16
2019-03-16T16:28:59.405Z,41.60
2019-03-16T16:31:28.128Z,44.23
2019-03-16T16:33:56.831Z,45.67
2019-03-16T16:36:25.496Z,46.80
2019-03-16T16:38:54.183Z,47.69
2019-03-16T16:41:25.363Z,49.85
2019-03-16T16:43:52.643Z,49.44
2019-03-16T16:46:20.889Z,49.85
2019-03-16T16:48:49.654Z,50.24
2019-03-16T16:51:18.238Z,51.09
2019-03-16T16:53:46.905Z,50.52
2019-03-16T16:56:15.238Z,51.35
2019-03-16T16:58:43.510Z,50.82
2019-03-16T17:01:11.801Z,51.71
2019-03-16T17:03:40.008Z,52.48
2019-03-16T17:06:08.664Z,54.06
2019-03-16T17:08:37.179Z,53.92
2019-03-16T17:11:05.809Z,54.61
2019-03-16T17:13:33.658Z,55.11
2019-03-16T17:16:02.076Z,56.99
2019-03-16T17:18:30.456Z,57.12
2019-03-16T17:20:58.774Z,57.95
2019-03-16T17:23:26.709Z,57.81
2019-03-16T17:25:54.606Z,58.77
2019-03-16T17:28:23.147Z,59.55
2019-03-16T17:30:51.368Z,60.20
2019-03-16T17:33:19.635Z,60.42
2019-03-16T17:35:48.231Z,62.14
2019-03-16T17:38:16.861Z,63.17
2019-03-16T17:40:45.594Z,63.67
2019-03-16T17:43:13.932Z,65.96
2019-03-16T17:45:42.196Z,65.19
2019-03-16T17:48:10.890Z,66.49
2019-03-16T17:50:39.524Z,66.86
2019-03-16T17:53:07.908Z,66.98
2019-03-16T17:55:36.237Z,67.89
2019-03-16T17:58:04.873Z,68.62
2019-03-16T18:00:33.572Z,68.93
2019-03-16T18:03:01.849Z,69.48
2019-03-16T18:05:30.391Z,71.24
2019-03-16T18:07:58.729Z,70.83
2019-03-16T18:10:27.468Z,71.32
2019-03-16T18:12:56.068Z,71.97
2019-03-16T18:15:23.968Z,72.47
2019-03-16T18:17:52.304Z,72.67
2019-03-16T18:20:20.969Z,73.22
2019-03-16T18:22:49.673Z,73.82
2019-03-16T18:25:17.283Z,74.32
2019-03-16T18:27:45.835Z,74.65
2019-03-16T18:30:14.293Z,74.56
2019-03-16T18:32:42.105Z,75.78
2019-03-16T18:35:10.123Z,75.50
2019-03-16T18:37:38.377Z,77.27
2019-03-16T18:40:07.953Z,76.28
2019-03-16T18:42:36.570Z,77.11
2019-03-16T18:45:05.057Z,77.85
2019-03-16T18:47:33.328Z,77.58
2019-03-16T18:50:01.660Z,77.50
2019-03-16T18:52:29.886Z,77.04
2019-03-16T18:54:58.160Z,77.07
2019-03-16T18:57:26.896Z,75.96
2019-03-16T18:59:55.114Z,76.41
2019-03-16T19:02:23.432Z,76.40
2019-03-16T19:04:52.029Z,76.97
2019-03-16T19:07:20.549Z,77.00
2019-03-16T19:09:48.940Z,77.22
2019-03-16T19:12:17.174Z,77.77
2019-03-16T19:14:45.394Z,77.32
2019-03-16T19:17:13.739Z,78.43
2019-03-16T19:19:41.610Z,76.97
2019-03-16T19:22:11.612Z,76.68
2019-03-16T19:24:49.626Z,75.14
2019-03-16T19:27:19.277Z,75.37
2019-03-16T19:29:54.155Z,75.22
2019-03-16T19:32:33.143Z,72.93
2019-03-16T19:34:58.530Z,71.49
2019-03-16T19:37:27.197Z,70.51
2019-03-16T19:39:55.790Z,69.44
2019-03-16T19:42:24.088Z,69.60
2019-03-16T19:44:52.804Z,68.35
2019-03-16T19:47:21.071Z,66.27
2019-03-16T19:50:08.865Z,64.82
2019-03-16T19:52:37.077Z,63.99
2019-03-16T19:55:45.425Z,64.43
2019-03-16T19:58:12.984Z,64.51
2019-03-16T20:00:41.749Z,63.15
2019-03-16T20:03:21.733Z,62.58
2019-03-16T20:09:02.811Z,63.00
2019-03-16T20:11:42.998Z,62.02
2019-03-16T20:14:11.295Z,61.71
2019-03-16T20:16:58.918Z,62.16
2019-03-16T20:19:47.055Z,61.43
2019-03-16T20:25:03.148Z,60.78
2019-03-16T20:27:31.532Z,60.06
2019-03-16T20:30:00.509Z,58.65
2019-03-16T20:32:29.768Z,58.21
2019-03-16T20:34:58.331Z,57.01
2019-03-16T20:37:27.137Z,57.74
2019-03-16T20:39:55.405Z,56.89
2019-03-16T20:42:24.023Z,55.19
2019-03-16T20:44:52.482Z,56.28
2019-03-16T20:47:21.190Z,54.21
2019-03-16T20:49:50.009Z,52.39
2019-03-16T20:52:17.858Z,54.45
2019-03-16T20:54:46.241Z,54.47
2019-03-16T20:57:14.935Z,54.40
2019-03-16T20:59:43.700Z,55.43
2019-03-16T21:02:11.592Z,54.96
2019-03-16T21:04:40.201Z,54.89
2019-03-16T21:07:27.769Z,53.23
2019-03-16T21:10:08.502Z,54.06
2019-03-16T21:15:45.445Z,52.07
2019-03-16T21:18:14.087Z,51.73
2019-03-16T21:23:43.958Z,51.29
2019-03-16T21:26:31.229Z,51.43
2019-03-16T21:28:59.129Z,52.11
2019-03-16T21:31:27.653Z,52.30
2019-03-16T21:33:56.020Z,52.50
2019-03-16T21:36:26.259Z,53.13
2019-03-16T21:38:55.886Z,52.53
2019-03-16T21:41:24.551Z,51.97
2019-03-16T21:43:52.926Z,51.42
2019-03-16T21:46:20.593Z,51.08
2019-03-16T21:48:48.970Z,52.03
2019-03-16T21:51:17.276Z,53.21
2019-03-16T21:53:45.305Z,53.17
2019-03-16T21:56:13.629Z,53.36
2019-03-16T21:58:41.110Z,52.69
2019-03-16T22:01:09.831Z,50.77
2019-03-16T22:03:41.905Z,51.75
2019-03-16T22:06:14.187Z,51.05
2019-03-16T22:08:43.448Z,52.61
2019-03-16T22:11:12.328Z,53.30
2019-03-16T22:13:40.256Z,51.01
2019-03-16T22:16:11.718Z,52.89
2019-03-16T22:18:40.201Z,52.82
2019-03-16T22:21:08.436Z,53.27
2019-03-16T22:23:37.118Z,54.51
2019-03-16T22:26:05.287Z,55.43
2019-03-16T22:28:33.954Z,56.29
2019-03-16T22:31:01.799Z,57.23
2019-03-16T22:33:30.237Z,58.14
2019-03-16T22:35:58.836Z,59.48
2019-03-16T22:38:46.582Z,61.93
2019-03-16T22:41:15.359Z,61.50
2019-03-16T22:43:44.112Z,62.16
2019-03-16T22:46:12.024Z,61.21
2019-03-16T22:48:39.904Z,61.40
2019-03-16T22:51:09.060Z,59.52
2019-03-16T22:53:37.657Z,59.16
2019-03-16T22:56:06.486Z,59.55
2019-03-16T22:58:35.215Z,58.23
2019-03-16T23:01:03.673Z,57.27
2019-03-16T23:03:32.352Z,56.02
2019-03-16T23:06:01.015Z,55.76
2019-03-16T23:08:29.340Z,56.03
2019-03-16T23:10:57.604Z,58.06
2019-03-16T23:13:26.272Z,57.03
2019-03-16T23:15:54.302Z,57.38
2019-03-16T23:18:23.251Z,58.57
2019-03-16T23:20:52.049Z,57.14
2019-03-16T23:23:19.861Z,59.59
2019-03-16T23:25:47.821Z,59.73
2019-03-16T23:28:17.011Z,58.39
2019-03-16T23:30:46.179Z,52.64
2019-03-16T23:33:14.780Z,51.73
2019-03-16T23:35:43.980Z,50.49
2019-03-16T23:38:12.692Z,49.79
2019-03-16T23:40:41.337Z,47.24
2019-03-16T23:43:10.353Z,47.67
2019-03-16T23:45:38.963Z,46.83
2019-03-16T23:48:07.119Z,46.18
2019-03-16T23:50:35.435Z,46.79
2019-03-16T23:53:02.864Z,48.68
2019-03-16T23:55:30.846Z,50.30
